sensor_id;sensor_type;location;lat;lon;timestamp;pressure;altitude;pressure_sealevel;temperature;humidity
68077;BME280;54866;53.458;14.540;2023-03-15T00:00:20;99535.68;;;0.16;92.36
68077;BME280;54866;53.458;14.540;2023-03-15T00:02:50;99532.70;;;0.14;92.56
68077;BME280;54866;53.458;14.540;2023-03-15T00:05:20;99540.39;;;0.12;92.80
68077;BME280;54866;53.458;14.540;2023-03-15T00:07:49;99546.28;;;0.10;92.95
68077;BME280;54866;53.458;14.540;2023-03-15T00:10:19;99545.70;;;0.08;93.12
68077;BME280;54866;53.458;14.540;2023-03-15T00:12:49;99551.09;;;0.04;93.26
68077;BME280;54866;53.458;14.540;2023-03-15T00:15:19;99555.82;;;0.03;93.44
68077;BME280;54866;53.458;14.540;2023-03-15T00:17:48;99563.33;;;-0.02;93.68
68077;BME280;54866;53.458;14.540;2023-03-15T00:20:18;99563.13;;;-0.05;93.81
68077;BME280;54866;53.458;14.540;2023-03-15T00:22:47;99563.98;;;-0.08;93.88
68077;BME280;54866;53.458;14.540;2023-03-15T00:25:17;99565.13;;;-0.10;94.01
68077;BME280;54866;53.458;14.540;2023-03-15T00:27:47;99566.19;;;-0.13;94.40
68077;BME280;54866;53.458;14.540;2023-03-15T00:30:17;99570.89;;;-0.17;94.28
68077;BME280;54866;53.458;14.540;2023-03-15T00:32:47;99577.77;;;-0.16;94.72
68077;BME280;54866;53.458;14.540;2023-03-15T00:35:16;99584.27;;;-0.18;94.78
68077;BME280;54866;53.458;14.540;2023-03-15T00:37:46;99590.85;;;-0.22;95.03
68077;BME280;54866;53.458;14.540;2023-03-15T00:40:16;99589.23;;;-0.24;95.07
68077;BME280;54866;53.458;14.540;2023-03-15T00:42:45;99594.40;;;-0.27;95.29
68077;BME280;54866;53.458;14.540;2023-03-15T00:45:19;99594.89;;;-0.29;95.65
68077;BME280;54866;53.458;14.540;2023-03-15T00:47:51;99606.02;;;-0.27;95.88
68077;BME280;54866;53.458;14.540;2023-03-15T00:50:21;99612.30;;;-0.28;95.89
68077;BME280;54866;53.458;14.540;2023-03-15T00:52:51;99615.41;;;-0.28;95.94
68077;BME280;54866;53.458;14.540;2023-03-15T00:55:21;99615.95;;;-0.28;96.17
68077;BME280;54866;53.458;14.540;2023-03-15T00:57:51;99627.23;;;-0.29;95.93
68077;BME280;54866;53.458;14.540;2023-03-15T01:00:22;99631.18;;;-0.32;96.27
68077;BME280;54866;53.458;14.540;2023-03-15T01:02:53;99636.80;;;-0.34;96.18
68077;BME280;54866;53.458;14.540;2023-03-15T01:05:23;99640.64;;;-0.34;96.36
68077;BME280;54866;53.458;14.540;2023-03-15T01:07:53;99644.67;;;-0.35;96.56
68077;BME280;54866;53.458;14.540;2023-03-15T01:10:23;99643.27;;;-0.35;96.58
68077;BME280;54866;53.458;14.540;2023-03-15T01:12:52;99649.84;;;-0.35;96.53
68077;BME280;54866;53.458;14.540;2023-03-15T01:15:22;99650.86;;;-0.34;96.64
68077;BME280;54866;53.458;14.540;2023-03-15T01:17:51;99653.23;;;-0.33;96.73
68077;BME280;54866;53.458;14.540;2023-03-15T01:20:21;99653.23;;;-0.33;96.92
68077;BME280;54866;53.458;14.540;2023-03-15T01:22:51;99654.23;;;-0.33;96.96
68077;BME280;54866;53.458;14.540;2023-03-15T01:25:21;99657.75;;;-0.33;96.90
68077;BME280;54866;53.458;14.540;2023-03-15T01:27:50;99658.52;;;-0.35;96.91
68077;BME280;54866;53.458;14.540;2023-03-15T01:30:20;99659.99;;;-0.37;97.03
68077;BME280;54866;53.458;14.540;2023-03-15T01:32:49;99663.89;;;-0.39;97.13
68077;BME280;54866;53.458;14.540;2023-03-15T01:35:19;99662.59;;;-0.41;97.29
68077;BME280;54866;53.458;14.540;2023-03-15T01:37:50;99670.81;;;-0.42;97.52
68077;BME280;54866;53.458;14.540;2023-03-15T01:40:20;99674.37;;;-0.44;97.62
68077;BME280;54866;53.458;14.540;2023-03-15T01:49:06;99679.84;;;-0.50;98.07
68077;BME280;54866;53.458;14.540;2023-03-15T01:51:41;99688.40;;;-0.51;98.07
68077;BME280;54866;53.458;14.540;2023-03-15T01:54:13;99690.35;;;-0.52;98.25
68077;BME280;54866;53.458;14.540;2023-03-15T01:56:48;99694.74;;;-0.54;98.37
68077;BME280;54866;53.458;14.540;2023-03-15T01:59:23;99702.13;;;-0.56;98.48
68077;BME280;54866;53.458;14.540;2023-03-15T02:01:54;99710.17;;;-0.58;98.86
68077;BME280;54866;53.458;14.540;2023-03-15T02:04:27;99716.68;;;-0.60;99.11
68077;BME280;54866;53.458;14.540;2023-03-15T02:06:58;99720.26;;;-0.63;99.29
68077;BME280;54866;53.458;14.540;2023-03-15T02:09:34;99723.01;;;-0.66;99.48
68077;BME280;54866;53.458;14.540;2023-03-15T02:12:07;99728.52;;;-0.69;99.49
68077;BME280;54866;53.458;14.540;2023-03-15T02:14:38;99731.23;;;-0.72;99.69
68077;BME280;54866;53.458;14.540;2023-03-15T02:17:08;99738.43;;;-0.74;100.00
68077;BME280;54866;53.458;14.540;2023-03-15T02:19:44;99736.38;;;-0.74;100.00
68077;BME280;54866;53.458;14.540;2023-03-15T02:22:24;99739.08;;;-0.73;100.00
68077;BME280;54866;53.458;14.540;2023-03-15T02:25:01;99750.69;;;-0.74;100.00
68077;BME280;54866;53.458;14.540;2023-03-15T02:27:35;99749.70;;;-0.75;100.00
68077;BME280;54866;53.458;14.540;2023-03-15T02:30:07;99755.87;;;-0.73;100.00
68077;BME280;54866;53.458;14.540;2023-03-15T02:32:38;99760.48;;;-0.72;100.00
68077;BME280;54866;53.458;14.540;2023-03-15T02:35:08;99762.84;;;-0.71;100.00
68077;BME280;54866;53.458;14.540;2023-03-15T02:37:38;99773.14;;;-0.69;100.00
68077;BME280;54866;53.458;14.540;2023-03-15T02:40:18;99770.55;;;-0.66;100.00
68077;BME280;54866;53.458;14.540;2023-03-15T02:42:50;99775.88;;;-0.61;100.00
68077;BME280;54866;53.458;14.540;2023-03-15T02:45:22;99784.10;;;-0.56;100.00
68077;BME280;54866;53.458;14.540;2023-03-15T02:47:53;99781.50;;;-0.52;100.00
68077;BME280;54866;53.458;14.540;2023-03-15T02:50:23;99787.33;;;-0.47;100.00
68077;BME280;54866;53.458;14.540;2023-03-15T02:52:53;99788.45;;;-0.42;100.00
68077;BME280;54866;53.458;14.540;2023-03-15T02:55:22;99792.75;;;-0.38;100.00
68077;BME280;54866;53.458;14.540;2023-03-15T02:57:52;99786.75;;;-0.35;99.96
68077;BME280;54866;53.458;14.540;2023-03-15T03:00:22;99792.22;;;-0.33;99.92
68077;BME280;54866;53.458;14.540;2023-03-15T03:02:52;99799.66;;;-0.34;99.90
68077;BME280;54866;53.458;14.540;2023-03-15T03:05:22;99803.73;;;-0.32;99.75
68077;BME280;54866;53.458;14.540;2023-03-15T03:07:52;99816.75;;;-0.29;99.70
68077;BME280;54866;53.458;14.540;2023-03-15T03:10:22;99817.73;;;-0.28;99.62
68077;BME280;54866;53.458;14.540;2023-03-15T03:12:52;99821.57;;;-0.25;99.29
68077;BME280;54866;53.458;14.540;2023-03-15T03:15:22;99829.55;;;-0.22;99.22
68077;BME280;54866;53.458;14.540;2023-03-15T03:17:51;99833.40;;;-0.19;99.26
68077;BME280;54866;53.458;14.540;2023-03-15T03:20:21;99837.32;;;-0.18;99.10
68077;BME280;54866;53.458;14.540;2023-03-15T03:22:51;99845.30;;;-0.14;98.77
68077;BME280;54866;53.458;14.540;2023-03-15T03:25:23;99850.66;;;-0.10;98.59
68077;BME280;54866;53.458;14.540;2023-03-15T03:27:54;99852.41;;;-0.08;98.51
68077;BME280;54866;53.458;14.540;2023-03-15T03:30:24;99855.95;;;-0.05;98.55
68077;BME280;54866;53.458;14.540;2023-03-15T03:32:54;99862.21;;;-0.03;98.17
68077;BME280;54866;53.458;14.540;2023-03-15T03:35:23;99862.44;;;0.00;98.12
68077;BME280;54866;53.458;14.540;2023-03-15T03:37:53;99867.86;;;0.03;98.13
68077;BME280;54866;53.458;14.540;2023-03-15T03:40:22;99870.25;;;0.04;97.78
68077;BME280;54866;53.458;14.540;2023-03-15T03:42:52;99878.65;;;0.05;97.71
68077;BME280;54866;53.458;14.540;2023-03-15T03:45:21;99888.82;;;0.07;97.52
68077;BME280;54866;53.458;14.540;2023-03-15T03:47:51;99895.52;;;0.07;97.55
68077;BME280;54866;53.458;14.540;2023-03-15T03:50:20;99902.39;;;0.09;97.71
68077;BME280;54866;53.458;14.540;2023-03-15T03:52:50;99909.42;;;0.10;97.80
68077;BME280;54866;53.458;14.540;2023-03-15T03:55:20;99917.36;;;0.10;97.63
68077;BME280;54866;53.458;14.540;2023-03-15T03:57:52;99921.84;;;0.11;97.72
68077;BME280;54866;53.458;14.540;2023-03-15T04:00:22;99930.45;;;0.12;97.56
68077;BME280;54866;53.458;14.540;2023-03-15T04:02:51;99935.26;;;0.13;97.45
68077;BME280;54866;53.458;14.540;2023-03-15T04:05:22;99935.51;;;0.11;97.66
68077;BME280;54866;53.458;14.540;2023-03-15T04:07:51;99931.43;;;0.10;97.60
68077;BME280;54866;53.458;14.540;2023-03-15T04:10:21;99938.50;;;0.10;97.69
68077;BME280;54866;53.458;14.540;2023-03-15T04:12:55;99942.77;;;0.12;97.64
68077;BME280;54866;53.458;14.540;2023-03-15T04:15:25;99945.04;;;0.11;97.86
68077;BME280;54866;53.458;14.540;2023-03-15T04:17:55;99951.83;;;0.11;97.75
68077;BME280;54866;53.458;14.540;2023-03-15T04:20:25;99957.02;;;0.11;97.78
68077;BME280;54866;53.458;14.540;2023-03-15T04:22:55;99958.39;;;0.11;98.02
68077;BME280;54866;53.458;14.540;2023-03-15T04:25:25;99955.46;;;0.11;97.92
68077;BME280;54866;53.458;14.540;2023-03-15T04:28:01;99959.58;;;0.12;98.04
68077;BME280;54866;53.458;14.540;2023-03-15T04:30:31;99964.93;;;0.12;97.93
68077;BME280;54866;53.458;14.540;2023-03-15T04:33:00;99968.98;;;0.10;98.04
68077;BME280;54866;53.458;14.540;2023-03-15T04:35:32;99974.41;;;0.09;98.13
68077;BME280;54866;53.458;14.540;2023-03-15T04:38:02;99979.42;;;0.09;98.20
68077;BME280;54866;53.458;14.540;2023-03-15T04:40:33;99977.91;;;0.08;98.13
68077;BME280;54866;53.458;14.540;2023-03-15T04:43:04;99984.73;;;0.07;98.26
68077;BME280;54866;53.458;14.540;2023-03-15T04:45:34;99986.73;;;0.06;98.25
68077;BME280;54866;53.458;14.540;2023-03-15T04:48:03;99980.93;;;0.03;98.36
68077;BME280;54866;53.458;14.540;2023-03-15T04:50:33;99983.66;;;-0.00;98.56
68077;BME280;54866;53.458;14.540;2023-03-15T04:53:02;99983.89;;;-0.05;98.54
68077;BME280;54866;53.458;14.540;2023-03-15T04:55:32;99985.14;;;-0.09;98.76
68077;BME280;54866;53.458;14.540;2023-03-15T04:58:02;99987.06;;;-0.13;98.95
68077;BME280;54866;53.458;14.540;2023-03-15T05:00:31;99984.67;;;-0.18;99.00
68077;BME280;54866;53.458;14.540;2023-03-15T05:03:01;99988.10;;;-0.21;99.51
68077;BME280;54866;53.458;14.540;2023-03-15T05:05:32;99991.41;;;-0.25;99.58
68077;BME280;54866;53.458;14.540;2023-03-15T05:08:02;99989.23;;;-0.31;99.83
68077;BME280;54866;53.458;14.540;2023-03-15T05:10:32;99993.08;;;-0.36;99.81
68077;BME280;54866;53.458;14.540;2023-03-15T05:13:02;99993.93;;;-0.40;99.95
68077;BME280;54866;53.458;14.540;2023-03-15T05:15:31;100000.44;;;-0.42;100.00
68077;BME280;54866;53.458;14.540;2023-03-15T05:18:01;100002.86;;;-0.45;100.00
68077;BME280;54866;53.458;14.540;2023-03-15T05:20:31;100009.83;;;-0.47;100.00
68077;BME280;54866;53.458;14.540;2023-03-15T05:23:00;100015.45;;;-0.48;100.00
68077;BME280;54866;53.458;14.540;2023-03-15T05:25:31;100015.91;;;-0.51;100.00
68077;BME280;54866;53.458;14.540;2023-03-15T05:28:01;100022.45;;;-0.50;100.00
68077;BME280;54866;53.458;14.540;2023-03-15T05:30:32;100026.05;;;-0.49;100.00
68077;BME280;54866;53.458;14.540;2023-03-15T05:33:01;100034.68;;;-0.45;100.00
68077;BME280;54866;53.458;14.540;2023-03-15T05:35:32;100034.77;;;-0.36;100.00
68077;BME280;54866;53.458;14.540;2023-03-15T05:38:01;100043.02;;;-0.26;100.00
68077;BME280;54866;53.458;14.540;2023-03-15T05:40:31;100048.85;;;-0.25;100.00
68077;BME280;54866;53.458;14.540;2023-03-15T05:43:01;100051.27;;;-0.25;100.00
68077;BME280;54866;53.458;14.540;2023-03-15T05:45:30;100055.77;;;-0.25;100.00
68077;BME280;54866;53.458;14.540;2023-03-15T05:48:00;100059.83;;;-0.23;100.00
68077;BME280;54866;53.458;14.540;2023-03-15T05:50:30;100066.45;;;-0.15;100.00
68077;BME280;54866;53.458;14.540;2023-03-15T05:52:59;100065.02;;;0.12;100.00
68077;BME280;54866;53.458;14.540;2023-03-15T05:55:29;100069.01;;;0.83;98.70
68077;BME280;54866;53.458;14.540;2023-03-15T05:57:59;100072.82;;;1.63;96.32
68077;BME280;54866;53.458;14.540;2023-03-15T06:00:28;100075.23;;;2.36;92.93
68077;BME280;54866;53.458;14.540;2023-03-15T06:02:58;100074.82;;;3.05;89.54
68077;BME280;54866;53.458;14.540;2023-03-15T06:05:28;100078.91;;;3.72;86.64
68077;BME280;54866;53.458;14.540;2023-03-15T06:07:57;100085.90;;;4.35;83.41
68077;BME280;54866;53.458;14.540;2023-03-15T06:10:27;100088.39;;;4.97;81.57
68077;BME280;54866;53.458;14.540;2023-03-15T06:12:56;100087.59;;;5.57;77.50
68077;BME280;54866;53.458;14.540;2023-03-15T06:15:26;100091.48;;;6.20;74.44
68077;BME280;54866;53.458;14.540;2023-03-15T06:17:55;100092.27;;;6.93;73.27
68077;BME280;54866;53.458;14.540;2023-03-15T06:20:25;100094.59;;;7.72;67.87
68077;BME280;54866;53.458;14.540;2023-03-15T06:22:55;100097.81;;;8.51;64.41
68077;BME280;54866;53.458;14.540;2023-03-15T06:25:24;100102.70;;;8.42;63.36
68077;BME280;54866;53.458;14.540;2023-03-15T06:27:54;100106.61;;;9.18;62.88
68077;BME280;54866;53.458;14.540;2023-03-15T06:30:23;100111.75;;;9.83;60.07
68077;BME280;54866;53.458;14.540;2023-03-15T06:32:55;100113.81;;;9.98;56.57
68077;BME280;54866;53.458;14.540;2023-03-15T06:35:24;100126.33;;;8.87;56.63
68077;BME280;54866;53.458;14.540;2023-03-15T06:37:54;100127.58;;;7.46;59.78
68077;BME280;54866;53.458;14.540;2023-03-15T06:40:23;100137.56;;;6.24;63.08
68077;BME280;54866;53.458;14.540;2023-03-15T06:42:53;100144.47;;;5.24;66.47
68077;BME280;54866;53.458;14.540;2023-03-15T06:45:22;100149.80;;;4.39;69.41
68077;BME280;54866;53.458;14.540;2023-03-15T06:47:52;100154.32;;;3.64;73.24
68077;BME280;54866;53.458;14.540;2023-03-15T06:50:22;100156.63;;;3.05;76.19
68077;BME280;54866;53.458;14.540;2023-03-15T06:52:51;100161.94;;;2.72;78.43
68077;BME280;54866;53.458;14.540;2023-03-15T06:55:21;100166.70;;;2.61;79.92
68077;BME280;54866;53.458;14.540;2023-03-15T06:57:50;100164.62;;;2.51;80.94
68077;BME280;54866;53.458;14.540;2023-03-15T07:00:21;100175.52;;;2.42;81.93
68077;BME280;54866;53.458;14.540;2023-03-15T07:02:50;100175.70;;;2.29;82.87
68077;BME280;54866;53.458;14.540;2023-03-15T07:05:20;100184.66;;;2.18;83.32
68077;BME280;54866;53.458;14.540;2023-03-15T07:07:49;100186.70;;;2.15;84.24
68077;BME280;54866;53.458;14.540;2023-03-15T07:10:19;100187.08;;;2.41;84.42
68077;BME280;54866;53.458;14.540;2023-03-15T07:12:49;100192.95;;;2.64;83.86
68077;BME280;54866;53.458;14.540;2023-03-15T07:15:19;100193.46;;;2.64;83.74
68077;BME280;54866;53.458;14.540;2023-03-15T07:17:48;100198.66;;;2.55;83.59
68077;BME280;54866;53.458;14.540;2023-03-15T07:20:18;100207.41;;;2.44;83.88
68077;BME280;54866;53.458;14.540;2023-03-15T07:22:47;100208.45;;;2.34;84.65
68077;BME280;54866;53.458;14.540;2023-03-15T07:25:17;100207.45;;;2.24;85.22
68077;BME280;54866;53.458;14.540;2023-03-15T07:27:51;100217.52;;;2.17;85.74
68077;BME280;54866;53.458;14.540;2023-03-15T07:30:21;100218.20;;;2.04;86.49
68077;BME280;54866;53.458;14.540;2023-03-15T07:32:51;100221.28;;;1.91;86.67
68077;BME280;54866;53.458;14.540;2023-03-15T07:35:21;100225.73;;;1.82;87.23
68077;BME280;54866;53.458;14.540;2023-03-15T07:37:50;100226.86;;;1.76;88.27
68077;BME280;54866;53.458;14.540;2023-03-15T07:40:20;100226.52;;;1.66;88.32
68077;BME280;54866;53.458;14.540;2023-03-15T07:42:50;100232.17;;;1.61;89.03
68077;BME280;54866;53.458;14.540;2023-03-15T07:45:20;100233.57;;;1.60;89.44
68077;BME280;54866;53.458;14.540;2023-03-15T07:47:50;100232.98;;;1.68;89.57
68077;BME280;54866;53.458;14.540;2023-03-15T07:50:19;100237.29;;;1.76;89.19
68077;BME280;54866;53.458;14.540;2023-03-15T07:52:49;100239.61;;;1.86;89.00
68077;BME280;54866;53.458;14.540;2023-03-15T07:55:19;100243.06;;;1.96;88.86
68077;BME280;54866;53.458;14.540;2023-03-15T07:57:49;100245.42;;;2.12;88.06
68077;BME280;54866;53.458;14.540;2023-03-15T08:00:21;100239.27;;;2.47;87.69
68077;BME280;54866;53.458;14.540;2023-03-15T08:02:51;100235.72;;;2.88;86.00
68077;BME280;54866;53.458;14.540;2023-03-15T08:05:21;100233.04;;;4.09;82.74
68077;BME280;54866;53.458;14.540;2023-03-15T08:07:51;100233.44;;;4.69;79.24
68077;BME280;54866;53.458;14.540;2023-03-15T08:10:21;100230.92;;;5.40;73.85
68077;BME280;54866;53.458;14.540;2023-03-15T08:12:50;100237.95;;;6.01;71.75
68077;BME280;54866;53.458;14.540;2023-03-15T08:15:20;100233.70;;;7.21;67.23
68077;BME280;54866;53.458;14.540;2023-03-15T08:18:02;100235.64;;;8.96;63.89
68077;BME280;54866;53.458;14.540;2023-03-15T08:20:33;100240.12;;;9.47;56.83
68077;BME280;54866;53.458;14.540;2023-03-15T08:23:03;100240.10;;;10.41;56.11
68077;BME280;54866;53.458;14.540;2023-03-15T08:25:33;100240.17;;;11.56;51.11
68077;BME280;54866;53.458;14.540;2023-03-15T08:28:03;100242.45;;;12.12;50.95
68077;BME280;54866;53.458;14.540;2023-03-15T08:30:33;100246.09;;;13.51;45.96
68077;BME280;54866;53.458;14.540;2023-03-15T08:33:03;100245.88;;;14.78;44.80
68077;BME280;54866;53.458;14.540;2023-03-15T08:35:33;100242.08;;;15.25;40.28
68077;BME280;54866;53.458;14.540;2023-03-15T08:38:03;100243.14;;;14.90;40.54
68077;BME280;54866;53.458;14.540;2023-03-15T08:40:33;100248.89;;;15.68;38.84
68077;BME280;54866;53.458;14.540;2023-03-15T08:43:02;100247.70;;;15.69;38.98
68077;BME280;54866;53.458;14.540;2023-03-15T08:45:32;100252.73;;;16.39;38.62
68077;BME280;54866;53.458;14.540;2023-03-15T08:48:01;100253.02;;;16.96;38.07
68077;BME280;54866;53.458;14.540;2023-03-15T08:50:31;100255.58;;;17.27;37.04
68077;BME280;54866;53.458;14.540;2023-03-15T08:53:01;100265.18;;;18.07;36.85
68077;BME280;54866;53.458;14.540;2023-03-15T08:55:30;100273.71;;;18.47;34.70
68077;BME280;54866;53.458;14.540;2023-03-15T08:58:00;100278.25;;;18.83;33.03
68077;BME280;54866;53.458;14.540;2023-03-15T09:00:30;100279.53;;;17.19;32.65
68077;BME280;54866;53.458;14.540;2023-03-15T09:03:00;100293.80;;;14.86;36.59
68077;BME280;54866;53.458;14.540;2023-03-15T09:05:29;100298.59;;;14.66;38.12
68077;BME280;54866;53.458;14.540;2023-03-15T09:07:59;100297.35;;;15.24;36.60
68077;BME280;54866;53.458;14.540;2023-03-15T09:10:29;100298.41;;;15.21;35.84
68077;BME280;54866;53.458;14.540;2023-03-15T09:12:58;100293.48;;;16.06;35.91
68077;BME280;54866;53.458;14.540;2023-03-15T09:15:28;100296.11;;;16.73;32.86
68077;BME280;54866;53.458;14.540;2023-03-15T09:17:58;100302.33;;;17.01;32.88
68077;BME280;54866;53.458;14.540;2023-03-15T09:20:28;100307.91;;;17.22;31.83
68077;BME280;54866;53.458;14.540;2023-03-15T09:22:59;100307.08;;;16.95;32.41
68077;BME280;54866;53.458;14.540;2023-03-15T09:25:28;100310.80;;;16.71;32.33
68077;BME280;54866;53.458;14.540;2023-03-15T09:27:58;100326.23;;;14.99;34.42
68077;BME280;54866;53.458;14.540;2023-03-15T09:30:28;100328.40;;;14.95;35.26
68077;BME280;54866;53.458;14.540;2023-03-15T09:32:57;100331.84;;;15.43;34.51
68077;BME280;54866;53.458;14.540;2023-03-15T09:35:27;100336.58;;;15.75;34.10
68077;BME280;54866;53.458;14.540;2023-03-15T09:37:56;100336.98;;;16.40;34.15
68077;BME280;54866;53.458;14.540;2023-03-15T09:40:28;100339.06;;;16.63;32.70
68077;BME280;54866;53.458;14.540;2023-03-15T09:43:05;100347.85;;;16.41;33.09
68077;BME280;54866;53.458;14.540;2023-03-15T09:45:57;100347.61;;;16.27;33.44
68077;BME280;54866;53.458;14.540;2023-03-15T09:48:33;100347.89;;;16.17;32.68
68077;BME280;54866;53.458;14.540;2023-03-15T09:51:09;100352.87;;;15.83;33.21
68077;BME280;54866;53.458;14.540;2023-03-15T09:53:46;100354.45;;;16.14;33.97
68077;BME280;54866;53.458;14.540;2023-03-15T09:56:23;100356.80;;;14.97;34.95
68077;BME280;54866;53.458;14.540;2023-03-15T09:58:57;100364.85;;;13.77;36.97
68077;BME280;54866;53.458;14.540;2023-03-15T10:01:31;100372.92;;;13.31;38.04
68077;BME280;54866;53.458;14.540;2023-03-15T10:04:07;100375.98;;;13.53;37.41
68077;BME280;54866;53.458;14.540;2023-03-15T10:06:41;100378.94;;;13.67;36.58
68077;BME280;54866;53.458;14.540;2023-03-15T10:09:15;100382.41;;;13.86;37.05
68077;BME280;54866;53.458;14.540;2023-03-15T10:11:52;100382.42;;;13.54;38.15
68077;BME280;54866;53.458;14.540;2023-03-15T10:14:33;100384.41;;;12.88;38.92
68077;BME280;54866;53.458;14.540;2023-03-15T10:17:08;100386.60;;;11.21;42.06
68077;BME280;54866;53.458;14.540;2023-03-15T10:19:43;100400.70;;;10.99;43.17
68077;BME280;54866;53.458;14.540;2023-03-15T10:22:22;100390.02;;;12.03;41.66
68077;BME280;54866;53.458;14.540;2023-03-15T10:24:56;100387.77;;;12.84;40.48
68077;BME280;54866;53.458;14.540;2023-03-15T10:27:31;100393.73;;;12.27;41.14
68077;BME280;54866;53.458;14.540;2023-03-15T10:30:08;100397.35;;;11.78;42.77
68077;BME280;54866;53.458;14.540;2023-03-15T10:32:42;100401.85;;;11.26;44.08
68077;BME280;54866;53.458;14.540;2023-03-15T10:35:17;100407.36;;;10.61;44.82
68077;BME280;54866;53.458;14.540;2023-03-15T10:37:45;100416.73;;;10.22;45.30
68077;BME280;54866;53.458;14.540;2023-03-15T10:40:16;100413.65;;;9.66;46.54
68077;BME280;54866;53.458;14.540;2023-03-15T10:43:15;100420.36;;;9.61;47.94
68077;BME280;54866;53.458;14.540;2023-03-15T10:45:48;100417.00;;;10.14;47.27
68077;BME280;54866;53.458;14.540;2023-03-15T10:48:26;100426.30;;;10.45;45.83
68077;BME280;54866;53.458;14.540;2023-03-15T10:50:58;100419.38;;;10.40;45.44
68077;BME280;54866;53.458;14.540;2023-03-15T10:53:29;100419.54;;;10.18;46.67
68077;BME280;54866;53.458;14.540;2023-03-15T10:56:02;100418.73;;;11.02;43.90
68077;BME280;54866;53.458;14.540;2023-03-15T10:58:41;100424.23;;;11.94;42.08
68077;BME280;54866;53.458;14.540;2023-03-15T11:01:23;100424.67;;;12.13;41.86
68077;BME280;54866;53.458;14.540;2023-03-15T11:04:11;100431.41;;;11.60;41.71
68077;BME280;54866;53.458;14.540;2023-03-15T11:06:44;100431.22;;;11.11;43.90
68077;BME280;54866;53.458;14.540;2023-03-15T11:09:16;100433.92;;;11.82;42.23
68077;BME280;54866;53.458;14.540;2023-03-15T11:11:58;100436.06;;;11.26;42.71
68077;BME280;54866;53.458;14.540;2023-03-15T11:14:33;100441.81;;;11.00;43.71
68077;BME280;54866;53.458;14.540;2023-03-15T11:17:06;100446.54;;;11.00;43.07
68077;BME280;54866;53.458;14.540;2023-03-15T11:19:40;100437.04;;;10.30;43.90
68077;BME280;54866;53.458;14.540;2023-03-15T11:22:12;100437.71;;;10.39;43.74
68077;BME280;54866;53.458;14.540;2023-03-15T11:24:42;100438.70;;;10.22;43.53
68077;BME280;54866;53.458;14.540;2023-03-15T11:27:14;100449.86;;;9.41;44.34
68077;BME280;54866;53.458;14.540;2023-03-15T11:29:48;100447.40;;;8.69;46.15
68077;BME280;54866;53.458;14.540;2023-03-15T11:32:21;100451.33;;;8.95;46.65
68077;BME280;54866;53.458;14.540;2023-03-15T11:34:56;100444.39;;;9.75;45.43
68077;BME280;54866;53.458;14.540;2023-03-15T11:37:34;100447.75;;;10.37;44.31
68077;BME280;54866;53.458;14.540;2023-03-15T11:40:14;100447.94;;;9.86;44.00
68077;BME280;54866;53.458;14.540;2023-03-15T11:42:50;100441.99;;;9.04;45.12
68077;BME280;54866;53.458;14.540;2023-03-15T11:45:30;100441.72;;;8.54;46.32
68077;BME280;54866;53.458;14.540;2023-03-15T11:48:06;100445.65;;;8.17;47.69
68077;BME280;54866;53.458;14.540;2023-03-15T11:50:39;100447.30;;;7.88;49.42
68077;BME280;54866;53.458;14.540;2023-03-15T11:53:11;100454.35;;;7.56;49.23
68077;BME280;54866;53.458;14.540;2023-03-15T11:55:45;100450.48;;;7.13;48.48
68077;BME280;54866;53.458;14.540;2023-03-15T11:58:33;100452.46;;;7.27;48.53
68077;BME280;54866;53.458;14.540;2023-03-15T12:01:04;100449.98;;;7.78;47.91
68077;BME280;54866;53.458;14.540;2023-03-15T12:03:39;100443.09;;;8.85;46.59
68077;BME280;54866;53.458;14.540;2023-03-15T12:06:37;100428.17;;;9.49;44.62
68077;BME280;54866;53.458;14.540;2023-03-15T12:12:37;100436.54;;;8.74;44.32
68077;BME280;54866;53.458;14.540;2023-03-15T12:15:42;100446.60;;;8.59;43.86
68077;BME280;54866;53.458;14.540;2023-03-15T12:18:17;100448.34;;;8.83;45.27
68077;BME280;54866;53.458;14.540;2023-03-15T12:20:56;100450.45;;;8.18;46.46
68077;BME280;54866;53.458;14.540;2023-03-15T12:23:38;100444.75;;;7.55;47.97
68077;BME280;54866;53.458;14.540;2023-03-15T12:26:11;100447.97;;;6.98;49.56
68077;BME280;54866;53.458;14.540;2023-03-15T12:28:51;100449.59;;;7.48;49.71
68077;BME280;54866;53.458;14.540;2023-03-15T12:31:21;100440.46;;;7.86;47.50
68077;BME280;54866;53.458;14.540;2023-03-15T12:33:53;100443.49;;;7.78;47.21
68077;BME280;54866;53.458;14.540;2023-03-15T12:36:33;100443.23;;;7.69;47.13
68077;BME280;54866;53.458;14.540;2023-03-15T12:39:20;100436.33;;;8.36;46.90
68077;BME280;54866;53.458;14.540;2023-03-15T12:41:51;100424.74;;;9.81;42.06
68077;BME280;54866;53.458;14.540;2023-03-15T12:44:39;100428.33;;;10.31;39.23
68077;BME280;54866;53.458;14.540;2023-03-15T12:47:10;100430.14;;;10.17;37.10
68077;BME280;54866;53.458;14.540;2023-03-15T12:49:42;100441.52;;;9.80;35.30
68077;BME280;54866;53.458;14.540;2023-03-15T12:52:32;100441.98;;;9.11;35.48
68077;BME280;54866;53.458;14.540;2023-03-15T12:55:11;100440.38;;;8.46;36.75
68077;BME280;54866;53.458;14.540;2023-03-15T12:57:48;100454.46;;;7.94;36.73
68077;BME280;54866;53.458;14.540;2023-03-15T13:00:20;100460.12;;;7.78;36.88
68077;BME280;54866;53.458;14.540;2023-03-15T13:03:03;100455.44;;;8.19;36.15
68077;BME280;54866;53.458;14.540;2023-03-15T13:05:35;100447.37;;;8.27;35.10
68077;BME280;54866;53.458;14.540;2023-03-15T13:08:19;100455.55;;;7.88;35.85
68077;BME280;54866;53.458;14.540;2023-03-15T13:11:04;100457.17;;;7.58;37.32
68077;BME280;54866;53.458;14.540;2023-03-15T13:13:53;100463.10;;;7.38;38.26
68077;BME280;54866;53.458;14.540;2023-03-15T13:16:31;100473.67;;;7.22;39.83
68077;BME280;54866;53.458;14.540;2023-03-15T13:19:11;100472.85;;;7.11;41.75
68077;BME280;54866;53.458;14.540;2023-03-15T13:21:55;100480.07;;;7.00;43.77